Strona główna
METAR-TAF:

METAR-TAF

Lotnisko :

Platforma wiertnicza

K14-fa-1c, Holandia

Szerokość geograficzna: 53-16-10N, Długość geograficzna: 3-37-40E, wysokość: 28 m

Aktualna obserwacja pogody

Raport powstał 28 minut temu, godzina 00:25 UTC
Wiatr 31 kt od południowo-południowy zachód
Temperatura 6°C
Wilgotność 87%
Ciśnienie 1010 hPa
Widzialność 10 km lub więcej
Mało chmury na wysokości 700 ft
Rozproszone chmury na wysokości 900 ft
Przerywane chmury na wysokości 1100 ft

METAR: EHKV 270025Z AUTO 21031KT 9999 FEW007 SCT009 BKN011 06/04 Q1010

czas: 01:53 (00:53 UTC)


TAF: brakujący

Obserwacja i prognoza pogody dla ponad 4000 lotnisk (raport METAR i TAF).

Dostępne stacje oznaczono żółtymi i czerwonymi punktami na mapie.

Najedź kursorem aby zobaczyć nazwę stacji.

Kliknij aby zobaczyć obserwacje i prognozy pogody.

Aby zmienić mapę: kliknij na zielony przycisk z czarnym krzyżykiem, aby powiększyć; na zielony przycisk z myślnikiem, aby pomniejszyć; na zielone strzałki, aby przejść do map sąsiednich.


METAR-TAF: